createdAt,value
2024-02-29T00:00:55.474Z,100953.91
2024-02-29T00:01:58.932Z,100946.00
2024-02-29T00:03:01.829Z,100948.56
2024-02-29T00:04:05.013Z,100948.63
2024-02-29T00:05:12.825Z,100952.16
2024-02-29T00:06:15.807Z,100946.09
2024-02-29T00:07:19.002Z,100958.34
2024-02-29T00:08:22.631Z,100952.28
2024-02-29T00:09:25.448Z,100954.88
2024-02-29T00:10:28.538Z,100942.97
2024-02-29T00:11:31.339Z,100950.81
2024-02-29T00:12:35.181Z,100946.59
2024-02-29T00:13:38.137Z,100910.22
2024-02-29T00:14:42.630Z,100951.75
2024-02-29T00:15:46.171Z,100950.84
2024-02-29T00:16:49.253Z,100950.91
2024-02-29T00:17:52.512Z,100933.75
2024-02-29T00:18:55.418Z,100944.81
2024-02-29T00:19:58.382Z,100939.59
2024-02-29T00:21:01.980Z,100948.97
2024-02-29T00:22:04.894Z,100947.34
2024-02-29T00:23:07.844Z,100948.13
2024-02-29T00:24:10.872Z,100943.09
2024-02-29T00:25:13.503Z,100950.81
2024-02-29T00:26:16.163Z,100952.63
2024-02-29T00:27:19.809Z,100947.53
2024-02-29T00:28:22.675Z,100946.06
2024-02-29T00:29:28.234Z,100945.44
2024-02-29T00:30:31.218Z,100941.16
2024-02-29T00:31:34.582Z,100944.63
2024-02-29T00:32:37.396Z,100942.03
2024-02-29T00:33:41.388Z,100944.72
2024-02-29T00:34:44.441Z,100939.50
2024-02-29T00:35:49.591Z,100938.59
2024-02-29T00:36:52.817Z,100937.66
2024-02-29T00:37:55.817Z,100935.13
2024-02-29T00:39:06.062Z,100942.94
2024-02-29T00:40:16.094Z,100937.84
2024-02-29T00:41:18.751Z,100938.72
2024-02-29T00:42:21.651Z,100936.06
2024-02-29T00:43:24.627Z,100937.75
2024-02-29T00:44:27.598Z,100934.38
2024-02-29T00:45:30.548Z,100938.59
2024-02-29T00:46:33.568Z,100940.22
2024-02-29T00:47:36.169Z,100939.41
2024-02-29T00:48:38.842Z,100943.78
2024-02-29T00:49:42.685Z,100939.50
2024-02-29T00:50:45.621Z,100943.75
2024-02-29T00:51:49.117Z,100938.53
2024-02-29T00:52:52.127Z,100936.66
2024-02-29T00:53:54.970Z,100936.66
2024-02-29T00:54:58.273Z,100941.03
2024-02-29T00:56:00.978Z,100928.16
2024-02-29T00:57:04.096Z,100935.13
2024-02-29T00:58:07.033Z,100942.13
2024-02-29T00:59:11.949Z,100921.53
2024-02-29T01:00:15.330Z,100939.72
2024-02-29T01:01:18.666Z,100936.19
2024-02-29T01:02:21.776Z,100942.31
2024-02-29T01:03:24.788Z,100941.41
2024-02-29T01:04:27.662Z,100907.16
2024-02-29T01:05:30.575Z,100933.56
2024-02-29T01:06:33.198Z,100943.28
2024-02-29T01:07:37.718Z,100940.66
2024-02-29T01:08:40.668Z,100933.72
2024-02-29T01:09:43.421Z,100930.25
2024-02-29T01:10:47.910Z,100934.63
2024-02-29T01:11:50.530Z,100945.03
2024-02-29T01:12:53.222Z,100937.25
2024-02-29T01:13:56.109Z,100940.66
2024-02-29T01:14:58.795Z,100939.06
2024-02-29T01:16:01.839Z,100944.38
2024-02-29T01:17:04.841Z,100934.97
2024-02-29T01:18:08.604Z,100934.16
2024-02-29T01:19:11.305Z,100936.88
2024-02-29T01:20:14.199Z,100935.28
2024-02-29T01:21:17.152Z,100929.16
2024-02-29T01:22:20.108Z,100928.41
2024-02-29T01:23:23.087Z,100931.84
2024-02-29T01:24:25.987Z,100937.16
2024-02-29T01:25:28.867Z,100938.94
2024-02-29T01:26:34.336Z,100937.16
2024-02-29T01:27:37.118Z,100932.81
2024-02-29T01:28:39.949Z,100931.09
2024-02-29T01:29:43.594Z,100931.84
2024-02-29T01:30:46.216Z,100934.38
2024-02-29T01:31:49.947Z,100934.44
2024-02-29T01:32:52.795Z,100923.41
2024-02-29T01:33:55.789Z,100934.25
2024-02-29T01:34:58.793Z,100888.25
2024-02-29T01:36:01.663Z,100937.78
2024-02-29T01:37:05.078Z,100935.09
2024-02-29T01:38:07.982Z,100930.91
2024-02-29T01:39:10.781Z,100931.09
2024-02-29T01:40:16.606Z,100938.94
2024-02-29T01:41:19.905Z,100922.56
2024-02-29T01:42:23.031Z,100935.44
2024-02-29T01:43:25.952Z,100931.94
2024-02-29T01:44:29.118Z,100933.62
2024-02-29T01:45:31.780Z,100931.87
2024-02-29T01:46:34.695Z,100935.31
2024-02-29T01:47:37.940Z,100915.69
2024-02-29T01:48:42.260Z,100942.37
2024-02-29T01:49:47.602Z,100936.31
2024-02-29T01:50:50.331Z,100931.97
2024-02-29T01:51:54.225Z,100936.34
2024-02-29T01:52:57.418Z,100937.16
2024-02-29T01:54:00.318Z,100935.31
2024-02-29T01:55:04.751Z,100922.47
2024-02-29T01:56:08.298Z,100924.03
2024-02-29T01:57:11.686Z,100934.38
2024-02-29T01:58:14.856Z,100933.50
2024-02-29T01:59:18.590Z,100927.50
2024-02-29T02:00:21.321Z,100938.03
2024-02-29T02:01:25.223Z,100926.75
2024-02-29T02:02:28.143Z,100922.56
2024-02-29T02:03:31.072Z,100934.91
2024-02-29T02:04:34.013Z,100916.22
2024-02-29T02:05:36.979Z,100930.06
2024-02-29T02:06:41.198Z,100924.03
2024-02-29T02:07:46.594Z,100935.41
2024-02-29T02:08:49.296Z,100930.00
2024-02-29T02:09:52.275Z,100930.62
2024-02-29T02:10:55.229Z,100926.38
2024-02-29T02:11:58.365Z,100931.69
2024-02-29T02:13:01.476Z,100923.09
2024-02-29T02:14:05.461Z,100923.03
2024-02-29T02:15:08.880Z,100923.94
2024-02-29T02:16:12.473Z,100925.63
2024-02-29T02:17:15.456Z,100924.78
2024-02-29T02:18:18.409Z,100922.28
2024-02-29T02:19:21.017Z,100929.16
2024-02-29T02:20:25.086Z,100924.69
2024-02-29T02:21:27.926Z,100922.13
2024-02-29T02:22:31.482Z,100926.47
2024-02-29T02:23:34.189Z,100924.78
2024-02-29T02:24:37.611Z,100928.41
2024-02-29T02:25:40.526Z,100917.12
2024-02-29T02:26:43.496Z,100920.63
2024-02-29T02:27:46.534Z,100924.87
2024-02-29T02:28:49.612Z,100921.47
2024-02-29T02:29:52.312Z,100921.44
2024-02-29T02:30:55.224Z,100923.19
2024-02-29T02:31:57.968Z,100916.34
2024-02-29T02:33:01.223Z,100925.84
2024-02-29T02:34:04.836Z,100920.69
2024-02-29T02:35:08.330Z,100919.78
2024-02-29T02:36:11.300Z,100923.31
2024-02-29T02:37:14.318Z,100921.47
2024-02-29T02:38:17.819Z,100918.75
2024-02-29T02:39:20.515Z,100905.88
2024-02-29T02:40:23.807Z,100921.44
2024-02-29T02:41:26.736Z,100920.41
2024-02-29T02:42:29.663Z,100913.44
2024-02-29T02:43:32.874Z,100923.75
2024-02-29T02:44:35.741Z,100916.94
2024-02-29T02:45:38.400Z,100920.47
2024-02-29T02:46:41.058Z,100919.81
2024-02-29T02:47:43.764Z,100915.63
2024-02-29T02:48:46.997Z,100917.12
2024-02-29T02:49:49.869Z,100919.69
2024-02-29T02:50:53.257Z,100925.75
2024-02-29T02:51:56.224Z,100923.97
2024-02-29T02:52:58.945Z,100921.37
2024-02-29T02:54:02.113Z,100916.16
2024-02-29T02:55:05.798Z,100923.94
2024-02-29T02:56:08.532Z,100917.88
2024-02-29T02:57:11.457Z,100918.81
2024-02-29T02:58:14.162Z,100925.84
2024-02-29T02:59:17.920Z,100910.41
2024-02-29T03:00:20.984Z,100913.06
2024-02-29T03:01:24.030Z,100922.50
2024-02-29T03:02:26.728Z,100920.72
2024-02-29T03:03:29.630Z,100923.41
2024-02-29T03:04:32.622Z,100926.91
2024-02-29T03:05:35.538Z,100922.59
2024-02-29T03:06:38.490Z,100834.88
2024-02-29T03:07:41.553Z,100921.69
2024-02-29T03:08:44.258Z,100922.59
2024-02-29T03:09:48.014Z,100924.38
2024-02-29T03:10:50.918Z,100924.38
2024-02-29T03:11:53.787Z,100920.94
2024-02-29T03:12:56.723Z,100917.63
2024-02-29T03:13:59.690Z,100913.31
2024-02-29T03:15:02.932Z,100920.28
2024-02-29T03:16:05.892Z,100919.47
2024-02-29T03:17:09.400Z,100922.16
2024-02-29T03:18:12.403Z,100917.72
2024-02-29T03:19:15.221Z,100924.75
2024-02-29T03:20:18.610Z,100924.69
2024-02-29T03:21:21.237Z,100931.69
2024-02-29T03:22:24.270Z,100922.19
2024-02-29T03:23:26.919Z,100925.75
2024-02-29T03:24:29.894Z,100925.91
2024-02-29T03:25:33.100Z,100923.34
2024-02-29T03:26:35.966Z,100932.06
2024-02-29T03:27:38.600Z,100928.72
2024-02-29T03:28:41.475Z,100926.16
2024-02-29T03:29:44.629Z,100930.53
2024-02-29T03:30:47.758Z,100933.13
2024-02-29T03:31:51.086Z,100935.81
2024-02-29T03:32:55.059Z,100938.34
2024-02-29T03:33:58.102Z,100934.03
2024-02-29T03:35:02.891Z,100933.13
2024-02-29T03:36:06.023Z,100933.13
2024-02-29T03:37:09.462Z,100935.84
2024-02-29T03:38:12.813Z,100934.06
2024-02-29T03:39:15.804Z,100926.44
2024-02-29T03:40:18.695Z,100939.38
2024-02-29T03:41:21.657Z,100935.88
2024-02-29T03:42:24.247Z,100937.44
2024-02-29T03:43:27.304Z,100935.81
2024-02-29T03:44:30.198Z,100940.12
2024-02-29T03:45:33.143Z,100940.22
2024-02-29T03:46:36.150Z,100940.19
2024-02-29T03:47:39.849Z,100923.66
2024-02-29T03:48:42.721Z,100935.50
2024-02-29T03:49:45.541Z,100939.84
2024-02-29T03:50:48.182Z,100937.22
2024-02-29T03:51:51.982Z,100937.41
2024-02-29T03:52:54.917Z,100946.13
2024-02-29T03:53:58.112Z,100930.75
2024-02-29T03:55:00.762Z,100947.09
2024-02-29T03:56:04.287Z,100946.22
2024-02-29T03:57:07.483Z,100942.75
2024-02-29T03:58:10.459Z,100945.34
2024-02-29T03:59:13.506Z,100945.31
2024-02-29T04:00:17.010Z,100942.53
2024-02-29T04:01:20.385Z,100945.13
2024-02-29T04:02:24.220Z,100935.59
2024-02-29T04:03:27.050Z,100941.00
2024-02-29T04:04:30.836Z,100948.03
2024-02-29T04:05:33.645Z,100943.00
2024-02-29T04:06:36.517Z,100944.69
2024-02-29T04:07:42.996Z,100937.16
2024-02-29T04:08:46.331Z,100951.00
2024-02-29T04:09:49.186Z,100903.41
2024-02-29T04:10:52.214Z,100953.81
2024-02-29T04:11:55.359Z,100949.53
2024-02-29T04:12:59.107Z,100951.25
2024-02-29T04:14:02.033Z,100956.44
2024-02-29T04:15:05.408Z,100937.50
2024-02-29T04:16:08.718Z,100957.31
2024-02-29T04:17:11.893Z,100946.97
2024-02-29T04:18:14.557Z,100946.97
2024-02-29T04:19:18.000Z,100958.31
2024-02-29T04:20:21.241Z,100946.97
2024-02-29T04:21:24.116Z,100950.41
2024-02-29T04:22:27.316Z,100957.47
2024-02-29T04:23:30.122Z,100948.81
2024-02-29T04:24:32.824Z,100954.88
2024-02-29T04:25:35.703Z,100959.22
2024-02-29T04:26:38.656Z,100964.53
2024-02-29T04:27:41.586Z,100956.66
2024-02-29T04:28:44.700Z,100968.84
2024-02-29T04:29:47.881Z,100961.94
2024-02-29T04:30:50.546Z,100963.75
2024-02-29T04:31:53.364Z,100967.16
2024-02-29T04:32:57.075Z,100968.00
2024-02-29T04:33:59.826Z,100963.56
2024-02-29T04:35:02.678Z,100968.75
2024-02-29T04:36:06.572Z,100956.53
2024-02-29T04:37:09.611Z,100960.91
2024-02-29T04:38:12.922Z,100961.66
2024-02-29T04:39:15.597Z,100962.56
2024-02-29T04:40:18.343Z,100960.84
2024-02-29T04:41:20.911Z,100964.38
2024-02-29T04:42:23.746Z,100967.06
2024-02-29T04:43:27.409Z,100962.84
2024-02-29T04:44:30.051Z,100965.56
2024-02-29T04:45:32.731Z,100966.53
2024-02-29T04:46:35.365Z,100969.22
2024-02-29T04:47:38.040Z,100967.62
2024-02-29T04:48:41.004Z,100963.34
2024-02-29T04:49:44.781Z,100968.44
2024-02-29T04:50:47.751Z,100970.03
2024-02-29T04:51:50.773Z,100973.56
2024-02-29T04:52:53.631Z,100961.75
2024-02-29T04:53:56.578Z,100969.31
2024-02-29T04:54:59.872Z,100969.31
2024-02-29T04:56:02.688Z,100976.19
2024-02-29T04:57:05.517Z,100971.03
2024-02-29T04:58:08.485Z,100974.44
2024-02-29T04:59:11.541Z,100964.19
2024-02-29T05:00:14.858Z,100974.44
2024-02-29T05:01:18.385Z,100964.84
2024-02-29T05:02:21.396Z,100976.94
2024-02-29T05:03:25.006Z,100978.69
2024-02-29T05:04:28.073Z,100980.34
2024-02-29T05:05:30.924Z,100976.00
2024-02-29T05:06:33.701Z,100975.13
2024-02-29T05:07:36.521Z,100967.56
2024-02-29T05:08:39.368Z,100972.63
2024-02-29T05:09:42.551Z,100977.81
2024-02-29T05:10:45.453Z,100977.81
2024-02-29T05:11:48.298Z,100986.50
2024-02-29T05:12:54.524Z,100983.91
2024-02-29T05:13:59.045Z,100990.94
2024-02-29T05:15:02.235Z,100989.19
2024-02-29T05:16:06.247Z,100990.84
2024-02-29T05:17:08.906Z,100993.50
2024-02-29T05:18:12.049Z,100986.63
2024-02-29T05:19:15.466Z,100990.13
2024-02-29T05:20:18.651Z,100980.78
2024-02-29T05:21:21.585Z,100990.16
2024-02-29T05:22:24.192Z,100978.06
2024-02-29T05:23:26.791Z,100985.84
2024-02-29T05:24:29.427Z,100987.44
2024-02-29T05:25:32.435Z,100991.78
2024-02-29T05:26:35.045Z,100996.94
2024-02-29T05:27:38.382Z,100977.19
2024-02-29T05:28:41.163Z,100989.97
2024-02-29T05:29:43.841Z,100992.59
2024-02-29T05:30:46.754Z,100986.59
2024-02-29T05:31:54.220Z,100984.75
2024-02-29T05:32:59.735Z,100977.13
2024-02-29T05:34:02.667Z,100982.94
2024-02-29T05:35:06.496Z,100988.94
2024-02-29T05:36:10.516Z,100992.28
2024-02-29T05:37:13.314Z,100993.03
2024-02-29T05:38:16.332Z,100989.47
2024-02-29T05:39:19.431Z,100992.09
2024-02-29T05:40:22.385Z,100987.69
2024-02-29T05:41:25.353Z,100987.50
2024-02-29T05:42:29.599Z,100993.41
2024-02-29T05:43:35.715Z,100989.34
2024-02-29T05:44:39.274Z,100990.00
2024-02-29T05:45:42.316Z,100988.00
2024-02-29T05:46:45.221Z,100987.09
2024-02-29T05:47:49.089Z,100965.06
2024-02-29T05:48:51.749Z,100972.47
2024-02-29T05:49:54.396Z,100984.44
2024-02-29T05:50:58.880Z,100982.78
2024-02-29T05:52:04.342Z,100995.00
2024-02-29T05:53:07.297Z,100988.91
2024-02-29T05:54:09.921Z,100987.16
2024-02-29T05:55:13.105Z,100994.03
2024-02-29T05:56:16.172Z,100989.56
2024-02-29T05:57:19.713Z,100991.06
2024-02-29T05:58:22.649Z,100992.72
2024-02-29T05:59:26.070Z,100995.19
2024-02-29T06:00:29.343Z,100998.44
2024-02-29T06:01:32.644Z,101001.59
2024-02-29T06:02:35.722Z,100993.44
2024-02-29T06:03:39.038Z,100994.75
2024-02-29T06:04:41.861Z,100993.63
2024-02-29T06:05:45.070Z,100999.37
2024-02-29T06:06:48.971Z,100994.00
2024-02-29T06:07:51.704Z,101002.56
2024-02-29T06:08:54.496Z,101001.03
2024-02-29T06:09:57.517Z,101000.19
2024-02-29T06:11:00.411Z,100996.72
2024-02-29T06:12:03.726Z,100997.47
2024-02-29T06:13:06.667Z,100986.31
2024-02-29T06:14:10.795Z,100995.75
2024-02-29T06:15:13.758Z,100994.03
2024-02-29T06:16:19.693Z,100997.56
2024-02-29T06:17:23.156Z,100998.38
2024-02-29T06:18:28.422Z,100990.75
2024-02-29T06:19:31.891Z,100995.06
2024-02-29T06:20:34.932Z,100991.50
2024-02-29T06:21:37.646Z,100992.28
2024-02-29T06:22:41.262Z,100993.06
2024-02-29T06:23:43.956Z,100993.72
2024-02-29T06:24:47.158Z,100995.12
2024-02-29T06:25:51.808Z,100994.03
2024-02-29T06:26:54.482Z,100995.34
2024-02-29T06:27:58.299Z,100988.84
2024-02-29T06:29:01.436Z,100996.50
2024-02-29T06:30:05.510Z,100979.25
2024-02-29T06:31:11.554Z,100996.22
2024-02-29T06:32:17.414Z,100994.16
2024-02-29T06:33:20.598Z,100992.81
2024-02-29T06:34:23.549Z,100994.06
2024-02-29T06:35:26.520Z,100995.22
2024-02-29T06:36:29.426Z,101005.00
2024-02-29T06:37:32.424Z,101000.84
2024-02-29T06:38:35.371Z,100993.06
2024-02-29T06:39:38.339Z,100997.88
2024-02-29T06:40:41.233Z,100999.84
2024-02-29T06:41:45.106Z,101000.09
2024-02-29T06:42:49.259Z,100998.75
2024-02-29T06:43:52.210Z,100992.19
2024-02-29T06:44:54.840Z,100996.09
2024-02-29T06:46:01.581Z,100987.75
2024-02-29T06:47:04.418Z,100988.25
2024-02-29T06:48:07.732Z,100984.88
2024-02-29T06:49:11.079Z,100995.88
2024-02-29T06:50:18.368Z,100986.91
2024-02-29T06:51:21.276Z,100987.09
2024-02-29T06:52:24.197Z,100992.84
2024-02-29T06:53:27.039Z,100993.13
2024-02-29T06:54:30.075Z,100991.38
2024-02-29T06:55:38.809Z,100988.91
2024-02-29T06:56:41.522Z,100980.66
2024-02-29T06:57:44.245Z,100992.34
2024-02-29T06:58:48.212Z,100993.88
2024-02-29T06:59:53.635Z,100990.25
2024-02-29T07:00:57.679Z,100989.91
2024-02-29T07:02:00.554Z,101003.06
2024-02-29T07:03:03.773Z,100997.22
2024-02-29T07:04:08.543Z,100997.53
2024-02-29T07:05:11.588Z,101002.09
2024-02-29T07:06:14.985Z,100997.97
2024-02-29T07:07:18.124Z,100991.09
2024-02-29T07:08:21.341Z,101003.25
2024-02-29T07:09:23.945Z,101001.97
2024-02-29T07:10:27.052Z,101000.97
2024-02-29T07:11:31.907Z,100999.37
2024-02-29T07:12:34.680Z,101001.69
2024-02-29T07:13:37.648Z,101001.53
2024-02-29T07:14:40.647Z,101002.28
2024-02-29T07:15:43.921Z,101006.19
2024-02-29T07:16:47.894Z,100962.66
2024-02-29T07:17:50.951Z,101003.56
2024-02-29T07:18:53.758Z,101000.34
2024-02-29T07:19:57.270Z,101007.53
2024-02-29T07:21:00.488Z,100999.81
2024-02-29T07:22:03.828Z,101005.38
2024-02-29T07:23:07.439Z,101006.06
2024-02-29T07:24:10.112Z,101003.72
2024-02-29T07:25:13.984Z,101007.91
2024-02-29T07:26:17.018Z,100959.75
2024-02-29T07:27:19.972Z,100963.13
2024-02-29T07:28:22.738Z,100997.62
2024-02-29T07:29:25.689Z,101002.34
2024-02-29T07:30:28.990Z,100999.50
2024-02-29T07:31:31.871Z,101004.31
2024-02-29T07:32:34.509Z,100995.91
2024-02-29T07:33:38.578Z,100998.53
2024-02-29T07:34:41.663Z,101001.94
2024-02-29T07:35:44.246Z,101000.81
2024-02-29T07:36:47.301Z,100993.44
2024-02-29T07:37:52.335Z,100997.53
2024-02-29T07:38:56.836Z,100997.44
2024-02-29T07:39:59.725Z,101000.47
2024-02-29T07:41:02.532Z,100995.00
2024-02-29T07:42:05.632Z,100992.84
2024-02-29T07:43:10.259Z,100938.16
2024-02-29T07:44:13.926Z,100998.22
2024-02-29T07:45:21.073Z,100988.44
2024-02-29T07:46:24.234Z,100984.97
2024-02-29T07:47:27.507Z,100988.88
2024-02-29T07:48:30.908Z,100987.22
2024-02-29T07:49:33.959Z,100983.16
2024-02-29T07:50:36.592Z,100975.84
2024-02-29T07:51:39.254Z,100980.56
2024-02-29T07:52:42.438Z,100979.06
2024-02-29T07:53:45.536Z,100970.84
2024-02-29T07:54:49.687Z,100962.19
2024-02-29T07:55:52.284Z,100978.28
2024-02-29T07:56:54.982Z,100972.37
2024-02-29T07:57:58.869Z,100971.41
2024-02-29T07:59:01.568Z,100970.00
2024-02-29T08:00:05.522Z,100966.03
2024-02-29T08:01:14.324Z,100976.19
2024-02-29T08:02:18.403Z,100962.66
2024-02-29T08:03:22.206Z,100892.97
2024-02-29T08:04:24.974Z,100965.16
2024-02-29T08:05:28.094Z,100964.22
2024-02-29T08:06:31.191Z,100963.38
2024-02-29T08:07:34.452Z,100969.34
2024-02-29T08:08:37.134Z,100962.13
2024-02-29T08:09:40.907Z,100966.25
2024-02-29T08:10:44.385Z,100966.91
2024-02-29T08:11:47.392Z,100956.75
2024-02-29T08:12:50.591Z,100955.63
2024-02-29T08:13:54.404Z,100950.88
2024-02-29T08:14:59.980Z,100953.50
2024-02-29T08:16:04.318Z,100961.50
2024-02-29T08:17:07.305Z,100945.50
2024-02-29T08:18:10.588Z,100948.97
2024-02-29T08:19:13.772Z,100954.91
2024-02-29T08:20:17.426Z,100920.69
2024-02-29T08:21:20.422Z,100952.09
2024-02-29T08:22:23.447Z,100947.69
2024-02-29T08:23:26.661Z,100951.38
2024-02-29T08:24:29.683Z,100947.69
2024-02-29T08:25:32.765Z,100948.00
2024-02-29T08:26:35.797Z,100940.34
2024-02-29T08:27:38.826Z,100940.84
2024-02-29T08:28:43.609Z,100938.53
2024-02-29T08:29:46.642Z,100942.37
2024-02-29T08:30:49.642Z,100942.22
2024-02-29T08:31:52.339Z,100938.97
2024-02-29T08:32:54.994Z,100936.34
2024-02-29T08:33:58.318Z,100940.44
2024-02-29T08:35:01.283Z,100944.47
2024-02-29T08:36:04.448Z,100945.97
2024-02-29T08:37:07.258Z,100929.97
2024-02-29T08:38:10.058Z,100938.34
2024-02-29T08:39:13.147Z,100932.75
2024-02-29T08:40:15.957Z,100937.50
2024-02-29T08:41:21.663Z,100937.91
2024-02-29T08:42:24.343Z,100908.47
2024-02-29T08:43:27.028Z,100936.81
2024-02-29T08:44:29.951Z,100935.56
2024-02-29T08:45:32.643Z,100934.47
2024-02-29T08:46:36.301Z,100934.34
2024-02-29T08:47:39.344Z,100932.37
2024-02-29T08:48:44.170Z,100932.72
2024-02-29T08:49:47.455Z,100934.50
2024-02-29T08:50:50.602Z,100932.97
2024-02-29T08:51:53.432Z,100935.41
2024-02-29T08:52:56.721Z,100929.63
2024-02-29T08:53:59.441Z,100936.56
2024-02-29T08:55:02.903Z,100934.09
2024-02-29T08:56:05.716Z,100939.81
2024-02-29T08:57:09.179Z,100926.19
2024-02-29T08:58:12.065Z,100930.25
2024-02-29T08:59:17.115Z,100937.00
2024-02-29T09:00:21.752Z,100939.75
2024-02-29T09:01:24.524Z,100934.56
2024-02-29T09:02:27.322Z,100931.19
2024-02-29T09:03:30.254Z,100935.72
2024-02-29T09:04:33.252Z,100940.53
2024-02-29T09:05:36.541Z,100946.91
2024-02-29T09:06:41.861Z,100939.31
2024-02-29T09:07:47.084Z,100939.19
2024-02-29T09:08:49.830Z,100941.63
2024-02-29T09:09:52.642Z,100934.41
2024-02-29T09:10:57.404Z,100939.84
2024-02-29T09:12:00.172Z,100944.84
2024-02-29T09:13:20.074Z,100943.03
2024-02-29T09:14:29.931Z,100938.28
2024-02-29T09:15:33.328Z,100939.19
2024-02-29T09:16:37.046Z,100943.75
2024-02-29T09:17:40.051Z,100944.09
2024-02-29T09:18:42.751Z,100943.25
2024-02-29T09:19:45.697Z,100939.75
2024-02-29T09:20:49.294Z,100937.25
2024-02-29T09:21:52.592Z,100939.75
2024-02-29T09:22:55.659Z,100939.88
2024-02-29T09:23:59.013Z,100942.31
2024-02-29T09:25:02.103Z,100932.63
2024-02-29T09:26:04.982Z,100936.28
2024-02-29T09:27:08.052Z,100936.28
2024-02-29T09:28:10.918Z,100941.47
2024-02-29T09:29:13.587Z,100935.34
2024-02-29T09:30:16.351Z,100940.16
2024-02-29T09:31:19.813Z,100936.09
2024-02-29T09:32:23.135Z,100932.81
2024-02-29T09:33:26.745Z,100937.50
2024-02-29T09:34:30.067Z,100940.88
2024-02-29T09:35:32.824Z,100929.66
2024-02-29T09:36:36.519Z,100934.56
2024-02-29T09:37:39.699Z,100932.47
2024-02-29T09:38:42.751Z,100936.16
2024-02-29T09:39:45.762Z,100932.88
2024-02-29T09:40:52.577Z,100934.47
2024-02-29T09:42:12.664Z,100925.00
2024-02-29T09:43:18.832Z,100931.53
2024-02-29T09:44:22.145Z,100927.63
2024-02-29T09:45:26.020Z,100924.34
2024-02-29T09:46:29.072Z,100924.59
2024-02-29T09:47:36.348Z,100920.63
2024-02-29T09:48:42.688Z,100922.91
2024-02-29T09:49:49.258Z,100915.72
2024-02-29T09:50:55.796Z,100923.53
2024-02-29T09:52:00.239Z,100918.66
2024-02-29T09:53:03.390Z,100917.69
2024-02-29T09:54:07.868Z,100914.50
2024-02-29T09:55:15.362Z,100913.25
2024-02-29T09:56:23.905Z,100924.13
2024-02-29T09:57:27.005Z,100920.28
2024-02-29T09:58:32.300Z,100923.12
2024-02-29T09:59:35.654Z,100920.56
2024-02-29T10:00:39.841Z,100923.78
2024-02-29T10:01:50.534Z,100926.22
2024-02-29T10:02:55.909Z,100923.94
2024-02-29T10:04:00.855Z,100924.78
2024-02-29T10:05:04.249Z,100914.72
2024-02-29T10:06:10.891Z,100926.00
2024-02-29T10:07:15.881Z,100916.44
2024-02-29T10:08:19.322Z,100917.38
2024-02-29T10:09:22.570Z,100912.88
2024-02-29T10:10:25.694Z,100909.50
2024-02-29T10:11:29.768Z,100902.69
2024-02-29T10:12:33.202Z,100910.94
2024-02-29T10:13:40.350Z,100910.12
2024-02-29T10:14:43.378Z,100904.09
2024-02-29T10:15:46.336Z,100878.88
2024-02-29T10:16:53.112Z,100903.03
2024-02-29T10:17:57.033Z,100912.00
2024-02-29T10:19:02.202Z,100901.03
2024-02-29T10:20:13.849Z,100891.44
2024-02-29T10:21:16.824Z,100900.75
2024-02-29T10:22:23.172Z,100907.59
2024-02-29T10:23:30.313Z,100892.81
2024-02-29T10:24:33.272Z,100904.03
2024-02-29T10:25:38.056Z,100904.13
2024-02-29T10:26:41.155Z,100907.41
2024-02-29T10:27:43.945Z,100890.47
2024-02-29T10:28:46.831Z,100893.75
2024-02-29T10:29:50.758Z,100900.09
2024-02-29T10:30:55.786Z,100890.87
2024-02-29T10:32:00.210Z,100896.00
2024-02-29T10:33:03.447Z,100879.03
2024-02-29T10:34:10.033Z,100886.16
2024-02-29T10:35:27.072Z,100888.81
2024-02-29T10:36:32.640Z,100884.84
2024-02-29T10:37:38.491Z,100883.16
2024-02-29T10:38:41.202Z,100889.50
2024-02-29T10:39:44.550Z,100883.06
2024-02-29T10:40:50.664Z,100886.44
2024-02-29T10:41:56.961Z,100883.59
2024-02-29T10:43:03.051Z,100867.09
2024-02-29T10:44:09.165Z,100880.94
2024-02-29T10:45:17.047Z,100883.59
2024-02-29T10:46:25.994Z,100873.97
2024-02-29T10:47:34.415Z,100879.12
2024-02-29T10:48:56.386Z,100873.63
2024-02-29T10:50:09.407Z,100874.69
2024-02-29T10:51:30.542Z,100863.00
2024-02-29T10:52:39.768Z,100866.44
2024-02-29T10:53:57.720Z,100876.75
2024-02-29T10:55:09.894Z,100862.38
2024-02-29T10:56:22.959Z,100864.19
2024-02-29T10:57:39.618Z,100860.72
2024-02-29T10:58:45.274Z,100859.75
2024-02-29T10:59:53.505Z,100863.34
2024-02-29T11:00:56.254Z,100857.28
2024-02-29T11:02:00.832Z,100863.75
2024-02-29T11:03:05.283Z,100867.37
2024-02-29T11:04:08.552Z,100864.72
2024-02-29T11:05:12.529Z,100859.00
2024-02-29T11:06:16.094Z,100857.53
2024-02-29T11:07:20.495Z,100857.63
2024-02-29T11:08:24.073Z,100845.00
2024-02-29T11:09:29.506Z,100855.59
2024-02-29T11:10:32.540Z,100855.13
2024-02-29T11:11:35.568Z,100853.97
2024-02-29T11:12:41.541Z,100860.63
2024-02-29T11:13:44.369Z,100857.34
2024-02-29T11:14:50.516Z,100856.16
2024-02-29T11:15:56.425Z,100850.56
2024-02-29T11:17:03.113Z,100854.59
2024-02-29T11:18:06.406Z,100851.63
2024-02-29T11:19:14.189Z,100838.50
2024-02-29T11:20:21.359Z,100844.44
2024-02-29T11:21:29.891Z,100841.44
2024-02-29T11:22:34.845Z,100837.37
2024-02-29T11:23:40.609Z,100836.00
2024-02-29T11:24:47.532Z,100835.75
2024-02-29T11:25:52.422Z,100833.94
2024-02-29T11:26:59.669Z,100834.16
2024-02-29T11:28:05.286Z,100828.66
2024-02-29T11:29:20.730Z,100828.56
2024-02-29T11:30:27.808Z,100827.59
2024-02-29T11:31:30.578Z,100828.75
2024-02-29T11:32:35.208Z,100822.75
2024-02-29T11:33:38.445Z,100785.50
2024-02-29T11:34:41.681Z,100827.81
2024-02-29T11:35:45.437Z,100824.44
2024-02-29T11:36:50.336Z,100822.53
2024-02-29T11:37:54.782Z,100817.75
2024-02-29T11:39:01.419Z,100827.22
2024-02-29T11:40:09.092Z,100822.88
2024-02-29T11:41:19.270Z,100825.53
2024-02-29T11:42:25.556Z,100823.09
2024-02-29T11:43:30.458Z,100823.09
2024-02-29T11:44:37.198Z,100825.19
2024-02-29T11:45:40.796Z,100821.72
2024-02-29T11:46:51.214Z,100810.84
2024-02-29T11:47:54.088Z,100823.41
2024-02-29T11:48:57.871Z,100823.16
2024-02-29T11:50:01.649Z,100826.34
2024-02-29T11:51:05.198Z,100822.09
2024-02-29T11:52:08.068Z,100816.41
2024-02-29T11:53:10.783Z,100815.69
2024-02-29T11:54:17.396Z,100817.81
2024-02-29T11:55:20.527Z,100820.56
2024-02-29T11:56:23.767Z,100821.72
2024-02-29T11:57:27.274Z,100817.75
2024-02-29T11:58:30.296Z,100817.31
2024-02-29T11:59:32.988Z,100817.09
2024-02-29T12:00:35.605Z,100811.66
2024-02-29T12:01:38.782Z,100805.63
2024-02-29T12:02:45.113Z,100815.81
2024-02-29T12:03:48.351Z,100801.69
2024-02-29T12:04:51.284Z,100801.22
2024-02-29T12:05:53.969Z,100809.03
2024-02-29T12:06:57.199Z,100804.09
2024-02-29T12:08:01.348Z,100800.41
2024-02-29T12:09:07.551Z,100810.75